createdAt,value
2019-06-26T00:00:08.998Z,22.11
2019-06-26T00:02:35.204Z,22.12
2019-06-26T00:05:01.462Z,22.08
2019-06-26T00:07:27.654Z,21.85
2019-06-26T00:09:53.814Z,21.71
2019-06-26T00:12:20.027Z,21.72
2019-06-26T00:14:46.193Z,21.76
2019-06-26T00:17:12.396Z,21.85
2019-06-26T00:19:38.537Z,21.82
2019-06-26T00:22:04.741Z,21.80
2019-06-26T00:24:30.914Z,21.78
2019-06-26T00:26:57.095Z,21.74
2019-06-26T00:29:23.291Z,21.67
2019-06-26T00:31:49.467Z,21.55
2019-06-26T00:34:15.666Z,21.51
2019-06-26T00:36:41.912Z,21.63
2019-06-26T00:39:08.130Z,21.70
2019-06-26T00:41:34.572Z,21.60
2019-06-26T00:44:00.785Z,21.58
2019-06-26T00:46:26.991Z,21.50
2019-06-26T00:48:53.133Z,21.51
2019-06-26T00:51:19.337Z,21.29
2019-06-26T00:53:45.515Z,21.45
2019-06-26T00:56:11.719Z,21.54
2019-06-26T00:58:37.875Z,21.65
2019-06-26T01:01:04.081Z,21.67
2019-06-26T01:03:30.246Z,21.47
2019-06-26T01:05:56.412Z,21.39
2019-06-26T01:08:22.614Z,21.31
2019-06-26T01:10:48.807Z,21.22
2019-06-26T01:13:14.957Z,21.16
2019-06-26T01:15:41.154Z,21.24
2019-06-26T01:18:07.340Z,21.17
2019-06-26T01:20:33.587Z,21.15
2019-06-26T01:22:59.753Z,21.12
2019-06-26T01:25:25.920Z,20.98
2019-06-26T01:27:52.110Z,20.91
2019-06-26T01:30:18.598Z,21.14
2019-06-26T01:32:44.767Z,21.23
2019-06-26T01:35:11.449Z,21.11
2019-06-26T01:37:37.635Z,20.98
2019-06-26T01:40:05.913Z,20.87
2019-06-26T01:42:32.083Z,20.98
2019-06-26T01:44:58.265Z,20.79
2019-06-26T01:47:24.442Z,20.67
2019-06-26T01:49:50.589Z,20.70
2019-06-26T01:52:16.777Z,20.71
2019-06-26T01:54:42.977Z,20.69
2019-06-26T01:57:09.171Z,20.62
2019-06-26T01:59:35.365Z,20.62
2019-06-26T02:02:01.524Z,20.60
2019-06-26T02:04:27.712Z,20.67
2019-06-26T02:06:53.905Z,20.50
2019-06-26T02:09:20.099Z,20.40
2019-06-26T02:11:46.281Z,20.32
2019-06-26T02:14:12.487Z,20.24
2019-06-26T02:16:38.642Z,20.20
2019-06-26T02:19:09.412Z,20.20
2019-06-26T02:21:35.628Z,20.31
2019-06-26T02:24:01.835Z,20.30
2019-06-26T02:26:27.987Z,20.28
2019-06-26T02:28:54.152Z,20.22
2019-06-26T02:31:20.341Z,20.55
2019-06-26T02:33:46.529Z,20.44
2019-06-26T02:36:12.671Z,20.31
2019-06-26T02:38:38.836Z,20.26
2019-06-26T02:41:05.046Z,20.10
2019-06-26T02:43:31.283Z,20.05
2019-06-26T02:45:57.471Z,20.05
2019-06-26T02:48:23.634Z,20.14
2019-06-26T02:50:49.868Z,20.20
2019-06-26T02:53:16.266Z,20.23
2019-06-26T02:55:42.432Z,20.27
2019-06-26T02:58:08.610Z,19.97
2019-06-26T03:00:34.797Z,20.01
2019-06-26T03:03:00.965Z,19.81
2019-06-26T03:05:27.157Z,19.79
2019-06-26T03:07:53.367Z,19.69
2019-06-26T03:10:19.537Z,19.66
2019-06-26T03:12:46.056Z,19.87
2019-06-26T03:15:12.915Z,20.01
2019-06-26T03:17:54.065Z,19.80
2019-06-26T03:20:07.769Z,19.70
2019-06-26T03:22:33.940Z,19.97
2019-06-26T03:25:00.143Z,19.96
2019-06-26T03:27:26.327Z,19.88
2019-06-26T03:29:52.476Z,19.82
2019-06-26T03:32:18.663Z,19.73
2019-06-26T03:34:44.827Z,19.80
2019-06-26T03:37:10.957Z,19.88
2019-06-26T03:39:37.132Z,19.83
2019-06-26T03:42:03.314Z,19.67
2019-06-26T03:44:29.648Z,19.59
2019-06-26T03:46:55.865Z,19.63
2019-06-26T03:49:22.056Z,19.61
2019-06-26T03:51:48.210Z,19.75
2019-06-26T03:54:14.394Z,19.92
2019-06-26T03:56:40.536Z,19.72
2019-06-26T03:59:06.688Z,19.79
2019-06-26T04:01:32.856Z,19.78
2019-06-26T04:03:59.016Z,20.03
2019-06-26T04:06:25.206Z,20.00
2019-06-26T04:08:51.402Z,19.97
2019-06-26T04:11:17.596Z,20.05
2019-06-26T04:13:43.747Z,20.24
2019-06-26T04:16:09.931Z,20.18
2019-06-26T04:18:36.088Z,20.03
2019-06-26T04:21:02.374Z,20.04
2019-06-26T04:23:28.589Z,20.14
2019-06-26T04:25:54.780Z,20.18
2019-06-26T04:28:20.932Z,20.15
2019-06-26T04:30:47.120Z,20.14
2019-06-26T04:33:13.268Z,20.27
2019-06-26T04:35:39.745Z,20.35
2019-06-26T04:38:05.940Z,20.47
2019-06-26T04:40:32.135Z,20.60
2019-06-26T04:42:58.326Z,20.71
2019-06-26T04:45:24.492Z,20.66
2019-06-26T04:47:51.030Z,20.76
2019-06-26T04:50:18.377Z,20.78
2019-06-26T04:52:44.563Z,20.91
2019-06-26T04:55:10.935Z,20.94
2019-06-26T04:57:37.128Z,20.90
2019-06-26T05:00:05.587Z,20.99
2019-06-26T05:02:31.783Z,21.00
2019-06-26T05:04:57.952Z,21.04
2019-06-26T05:07:24.147Z,21.11
2019-06-26T05:09:50.340Z,21.20
2019-06-26T05:12:16.538Z,21.26
2019-06-26T05:14:42.715Z,21.24
2019-06-26T05:17:08.996Z,21.33
2019-06-26T05:19:35.674Z,21.31
2019-06-26T05:22:01.846Z,21.42
2019-06-26T05:24:28.060Z,21.47
2019-06-26T05:26:54.239Z,21.55
2019-06-26T05:29:20.439Z,21.65
2019-06-26T05:31:46.634Z,21.65
2019-06-26T05:34:12.834Z,21.69
2019-06-26T05:36:38.992Z,21.74
2019-06-26T05:39:05.899Z,21.75
2019-06-26T05:41:32.093Z,21.79
2019-06-26T05:43:58.271Z,21.81
2019-06-26T05:46:30.940Z,21.83
2019-06-26T05:48:52.649Z,21.86
2019-06-26T05:51:19.097Z,22.01
2019-06-26T05:53:45.247Z,22.12
2019-06-26T05:56:11.438Z,22.28
2019-06-26T05:58:37.684Z,22.44
2019-06-26T06:01:04.367Z,22.58
2019-06-26T06:03:30.536Z,22.50
2019-06-26T06:05:56.833Z,22.70
2019-06-26T06:08:23.048Z,22.81
2019-06-26T06:10:49.242Z,23.10
2019-06-26T06:13:15.466Z,22.87
2019-06-26T06:15:41.635Z,23.06
2019-06-26T06:18:07.893Z,23.22
2019-06-26T06:20:38.159Z,23.37
2019-06-26T06:23:04.974Z,23.48
2019-06-26T06:25:31.131Z,23.58
2019-06-26T06:27:57.629Z,23.68
2019-06-26T06:30:23.820Z,23.79
2019-06-26T06:32:50.182Z,23.97
2019-06-26T06:35:16.394Z,24.06
2019-06-26T06:37:42.632Z,24.26
2019-06-26T06:40:09.189Z,24.45
2019-06-26T06:42:35.630Z,24.50
2019-06-26T06:45:04.483Z,24.47
2019-06-26T06:47:30.637Z,24.67
2019-06-26T06:49:56.990Z,24.81
2019-06-26T06:52:23.291Z,24.91
2019-06-26T06:54:49.688Z,25.07
2019-06-26T06:57:15.987Z,24.93
2019-06-26T06:59:42.178Z,25.17
2019-06-26T07:02:08.396Z,25.25
2019-06-26T07:04:34.715Z,25.44
2019-06-26T07:07:01.151Z,25.47
2019-06-26T07:09:27.789Z,25.61
2019-06-26T07:11:54.505Z,25.75
2019-06-26T07:14:20.959Z,26.05
2019-06-26T07:16:48.021Z,26.14
2019-06-26T07:19:14.228Z,26.14
2019-06-26T07:21:40.653Z,26.22
2019-06-26T07:24:07.352Z,26.19
2019-06-26T07:26:34.085Z,26.13
2019-06-26T07:29:00.375Z,26.43
2019-06-26T07:31:27.211Z,26.39
2019-06-26T07:33:55.827Z,26.27
2019-06-26T07:36:22.061Z,26.34
2019-06-26T07:38:48.385Z,26.62
2019-06-26T07:41:15.086Z,26.73
2019-06-26T07:43:41.638Z,26.68
2019-06-26T07:46:07.977Z,26.84
2019-06-26T07:48:34.734Z,26.97
2019-06-26T07:51:01.447Z,26.98
2019-06-26T07:53:27.907Z,27.28
2019-06-26T07:55:54.464Z,27.50
2019-06-26T07:58:21.640Z,27.57
2019-06-26T08:00:48.454Z,27.66
2019-06-26T08:03:15.453Z,27.82
2019-06-26T08:05:43.199Z,27.97
2019-06-26T08:08:12.190Z,28.17
2019-06-26T08:10:38.336Z,28.42
2019-06-26T08:13:07.090Z,28.52
2019-06-26T08:15:33.982Z,28.55
2019-06-26T08:18:01.627Z,28.70
2019-06-26T08:20:28.746Z,28.75
2019-06-26T08:22:55.141Z,28.80
2019-06-26T08:25:21.758Z,28.96
2019-06-26T08:27:48.947Z,29.16
2019-06-26T08:30:15.755Z,29.22
2019-06-26T08:32:42.320Z,29.27
2019-06-26T08:35:09.011Z,29.48
2019-06-26T08:37:35.495Z,29.59
2019-06-26T08:40:04.161Z,29.70
2019-06-26T08:42:30.743Z,29.81
2019-06-26T08:44:57.286Z,29.96
2019-06-26T08:47:24.047Z,29.99
2019-06-26T08:49:50.777Z,29.86
2019-06-26T08:52:17.577Z,30.03
2019-06-26T08:54:44.219Z,30.09
2019-06-26T08:57:11.106Z,30.20
2019-06-26T08:59:37.400Z,30.27
2019-06-26T09:02:04.224Z,30.46
2019-06-26T09:04:30.816Z,30.64
2019-06-26T09:06:57.382Z,30.58
2019-06-26T09:09:24.059Z,30.66
2019-06-26T09:11:50.617Z,30.67
2019-06-26T09:14:17.485Z,30.72
2019-06-26T09:16:44.007Z,30.98
2019-06-26T09:19:10.497Z,30.98
2019-06-26T09:21:36.928Z,30.94
2019-06-26T09:24:03.432Z,30.86
2019-06-26T09:26:29.886Z,31.16
2019-06-26T09:28:56.830Z,31.31
2019-06-26T09:31:23.411Z,31.43
2019-06-26T09:33:49.768Z,31.44
2019-06-26T09:36:16.432Z,31.32
2019-06-26T09:38:43.139Z,31.41
2019-06-26T09:41:09.506Z,31.74
2019-06-26T09:43:35.966Z,32.02
2019-06-26T09:46:02.447Z,32.25
2019-06-26T09:48:28.851Z,32.16
2019-06-26T09:50:55.424Z,32.17
2019-06-26T09:53:22.230Z,32.35
2019-06-26T09:55:49.001Z,32.30
2019-06-26T09:58:15.319Z,32.45
2019-06-26T10:00:41.983Z,32.15
2019-06-26T10:03:09.625Z,32.15
2019-06-26T10:05:36.236Z,32.38
2019-06-26T10:08:02.909Z,32.71
2019-06-26T10:10:29.497Z,32.57
2019-06-26T10:12:55.932Z,32.63
2019-06-26T10:15:22.519Z,32.81
2019-06-26T10:17:49.154Z,32.90
2019-06-26T10:20:17.391Z,33.16
2019-06-26T10:22:44.207Z,33.18
2019-06-26T10:25:11.744Z,33.40
2019-06-26T10:27:38.711Z,33.58
2019-06-26T10:30:06.137Z,33.37
2019-06-26T10:32:33.262Z,33.43
2019-06-26T10:34:59.865Z,33.26
2019-06-26T10:37:26.508Z,33.47
2019-06-26T10:39:53.352Z,33.60
2019-06-26T10:42:19.804Z,33.56
2019-06-26T10:44:46.500Z,33.53
2019-06-26T10:47:13.067Z,33.40
2019-06-26T10:49:39.389Z,33.50
2019-06-26T10:52:05.730Z,33.62
2019-06-26T10:54:31.938Z,33.74
2019-06-26T10:56:58.361Z,33.61
2019-06-26T10:59:24.674Z,33.69
2019-06-26T11:01:50.972Z,33.84
2019-06-26T11:04:17.230Z,33.78
2019-06-26T11:06:43.407Z,33.86
2019-06-26T11:09:09.676Z,33.88
2019-06-26T11:11:35.936Z,34.00
2019-06-26T11:14:03.710Z,34.09
2019-06-26T11:16:29.999Z,33.99
2019-06-26T11:18:56.266Z,34.19
2019-06-26T11:21:22.439Z,34.04
2019-06-26T11:23:48.744Z,33.82
2019-06-26T11:26:15.311Z,33.54
2019-06-26T11:28:41.500Z,33.77
2019-06-26T11:31:07.819Z,34.06
2019-06-26T11:33:34.115Z,33.61
2019-06-26T11:36:00.595Z,33.77
2019-06-26T11:38:26.909Z,33.92
2019-06-26T11:40:53.199Z,34.26
2019-06-26T11:43:19.512Z,34.16
2019-06-26T11:45:45.743Z,34.34
2019-06-26T11:48:12.167Z,34.24
2019-06-26T11:50:38.381Z,34.13
2019-06-26T11:53:04.565Z,34.46
2019-06-26T11:55:30.875Z,34.43
2019-06-26T11:57:57.145Z,34.15
2019-06-26T12:00:24.409Z,34.32
2019-06-26T12:02:50.711Z,34.45
2019-06-26T12:05:18.963Z,34.34
2019-06-26T12:07:45.165Z,34.57
2019-06-26T12:10:13.121Z,34.45
2019-06-26T12:12:39.484Z,34.27
2019-06-26T12:15:07.872Z,34.36
2019-06-26T12:17:34.120Z,34.57
2019-06-26T12:20:17.168Z,34.50
2019-06-26T12:22:28.852Z,34.61
2019-06-26T12:24:55.035Z,34.46
2019-06-26T12:27:21.258Z,34.42
2019-06-26T12:29:47.509Z,34.68
2019-06-26T12:32:13.739Z,34.90
2019-06-26T12:34:39.918Z,34.89
2019-06-26T12:37:06.138Z,34.79
2019-06-26T12:39:32.351Z,34.97
2019-06-26T12:41:58.557Z,34.94
2019-06-26T12:44:24.840Z,35.04
2019-06-26T12:46:51.013Z,34.91
2019-06-26T12:49:17.278Z,34.87
2019-06-26T12:51:43.583Z,34.99
2019-06-26T12:54:09.748Z,35.06
2019-06-26T12:56:36.067Z,35.16
2019-06-26T12:59:02.406Z,35.00
2019-06-26T13:01:28.797Z,35.13
2019-06-26T13:03:55.041Z,35.29
2019-06-26T13:06:21.234Z,35.47
2019-06-26T13:08:47.513Z,35.57
2019-06-26T13:11:13.985Z,35.04
2019-06-26T13:13:40.198Z,35.44
2019-06-26T13:16:06.409Z,35.38
2019-06-26T13:18:32.802Z,35.37
2019-06-26T13:20:58.988Z,35.38
2019-06-26T13:23:25.409Z,35.06
2019-06-26T13:25:51.601Z,35.42
2019-06-26T13:28:17.796Z,35.45
2019-06-26T13:30:44.050Z,35.73
2019-06-26T13:33:10.277Z,35.65
2019-06-26T13:35:36.580Z,35.59
2019-06-26T13:38:03.322Z,35.54
2019-06-26T13:40:29.651Z,35.60
2019-06-26T13:42:55.974Z,35.43
2019-06-26T13:45:22.260Z,35.49
2019-06-26T13:47:48.564Z,35.35
2019-06-26T13:50:15.395Z,35.62
2019-06-26T13:52:41.649Z,35.35
2019-06-26T13:55:09.137Z,35.09
2019-06-26T13:57:35.350Z,35.59
2019-06-26T14:00:04.348Z,35.51
2019-06-26T14:02:30.555Z,35.50
2019-06-26T14:04:56.791Z,35.41
2019-06-26T14:07:23.026Z,35.68
2019-06-26T14:09:49.398Z,35.60
2019-06-26T14:12:18.996Z,35.59
2019-06-26T14:14:56.786Z,35.63
2019-06-26T14:17:12.125Z,35.56
2019-06-26T14:19:38.318Z,35.75
2019-06-26T14:22:04.650Z,35.96
2019-06-26T14:24:30.871Z,35.42
2019-06-26T14:26:57.120Z,35.67
2019-06-26T14:29:23.858Z,35.73
2019-06-26T14:31:50.153Z,35.66
2019-06-26T14:34:16.337Z,35.79
2019-06-26T14:36:42.906Z,35.62
2019-06-26T14:39:09.093Z,35.56
2019-06-26T14:41:38.988Z,35.35
2019-06-26T14:44:03.562Z,35.30
2019-06-26T14:46:29.789Z,35.69
2019-06-26T14:48:56.025Z,35.76
2019-06-26T14:51:22.384Z,35.61
2019-06-26T14:53:48.698Z,35.68
2019-06-26T14:56:14.952Z,36.07
2019-06-26T14:58:41.625Z,35.79
2019-06-26T15:01:08.213Z,36.03
2019-06-26T15:03:34.717Z,36.18
2019-06-26T15:06:15.463Z,36.16
2019-06-26T15:08:29.034Z,35.90
2019-06-26T15:10:55.282Z,35.98
2019-06-26T15:13:21.479Z,36.09
2019-06-26T15:15:47.749Z,35.78
2019-06-26T15:18:14.140Z,35.67
2019-06-26T15:20:40.361Z,35.94
2019-06-26T15:23:06.537Z,35.64
2019-06-26T15:25:32.787Z,35.94
2019-06-26T15:27:58.963Z,35.61
2019-06-26T15:30:25.167Z,36.05
2019-06-26T15:32:51.360Z,35.95
2019-06-26T15:35:17.537Z,35.32
2019-06-26T15:37:44.917Z,35.67
2019-06-26T15:40:13.942Z,35.68
2019-06-26T15:42:40.327Z,35.89
2019-06-26T15:45:07.099Z,35.95
2019-06-26T15:47:33.318Z,35.88
2019-06-26T15:49:59.585Z,35.79
2019-06-26T15:52:25.836Z,35.47
2019-06-26T15:54:52.199Z,35.74
2019-06-26T15:57:18.339Z,35.95
2019-06-26T15:59:44.553Z,35.85
2019-06-26T16:02:10.867Z,36.05
2019-06-26T16:04:37.079Z,35.71
2019-06-26T16:07:03.425Z,35.59
2019-06-26T16:09:29.707Z,35.62
2019-06-26T16:11:58.834Z,35.23
2019-06-26T16:14:23.977Z,35.26
2019-06-26T16:16:52.539Z,35.26
2019-06-26T16:19:23.634Z,35.01
2019-06-26T16:21:49.848Z,34.76
2019-06-26T16:24:16.189Z,34.72
2019-06-26T16:26:42.539Z,34.46
2019-06-26T16:29:08.769Z,34.84
2019-06-26T16:31:35.334Z,35.13
2019-06-26T16:34:01.564Z,34.73
2019-06-26T16:36:27.830Z,34.92
2019-06-26T16:38:54.067Z,35.18
2019-06-26T16:41:20.301Z,34.96
2019-06-26T16:43:46.836Z,34.85
2019-06-26T16:46:13.428Z,34.23
2019-06-26T16:48:39.654Z,34.13
2019-06-26T16:51:06.071Z,34.07
2019-06-26T16:53:35.389Z,33.91
2019-06-26T16:56:00.537Z,33.74
2019-06-26T16:58:26.740Z,33.77
2019-06-26T17:00:52.965Z,33.75
2019-06-26T17:03:19.173Z,33.62
2019-06-26T17:05:45.458Z,33.54
2019-06-26T17:08:11.709Z,33.46
2019-06-26T17:10:37.941Z,33.20
2019-06-26T17:13:04.199Z,33.07
2019-06-26T17:15:30.463Z,32.80
2019-06-26T17:17:56.690Z,32.70
2019-06-26T17:20:23.007Z,32.63
2019-06-26T17:23:04.607Z,32.54
2019-06-26T17:25:17.375Z,32.44
2019-06-26T17:27:43.636Z,32.41
2019-06-26T17:30:10.645Z,32.44
2019-06-26T17:32:36.862Z,32.11
2019-06-26T17:35:06.920Z,32.22
2019-06-26T17:37:33.139Z,32.30
2019-06-26T17:39:59.344Z,32.54
2019-06-26T17:42:25.627Z,32.49
2019-06-26T17:44:51.958Z,32.57
2019-06-26T17:47:18.119Z,32.43
2019-06-26T17:49:44.432Z,32.25
2019-06-26T17:52:10.618Z,32.18
2019-06-26T17:54:36.902Z,31.95
2019-06-26T17:57:03.080Z,31.74
2019-06-26T17:59:29.339Z,31.56
2019-06-26T18:01:55.681Z,31.68
2019-06-26T18:04:21.915Z,31.61
2019-06-26T18:06:48.144Z,31.51
2019-06-26T18:09:14.408Z,31.43
2019-06-26T18:11:41.165Z,31.59
2019-06-26T18:14:07.380Z,31.27
2019-06-26T18:16:33.676Z,31.44
2019-06-26T18:18:59.889Z,31.34
2019-06-26T18:21:26.104Z,31.29
2019-06-26T18:23:52.291Z,31.25
2019-06-26T18:26:18.615Z,31.14
2019-06-26T18:28:44.796Z,31.01
2019-06-26T18:31:10.979Z,30.80
2019-06-26T18:33:37.355Z,30.83
2019-06-26T18:36:03.748Z,30.96
2019-06-26T18:38:29.948Z,30.88
2019-06-26T18:40:56.265Z,30.66
2019-06-26T18:43:22.810Z,30.85
2019-06-26T18:45:48.989Z,30.73
2019-06-26T18:48:18.784Z,30.56
2019-06-26T18:50:44.982Z,30.60
2019-06-26T18:53:11.217Z,30.38
2019-06-26T18:55:37.502Z,30.36
2019-06-26T18:58:04.039Z,30.36
2019-06-26T19:00:30.269Z,30.44
2019-06-26T19:02:56.445Z,30.17
2019-06-26T19:05:22.717Z,30.15
2019-06-26T19:07:48.959Z,30.06
2019-06-26T19:10:15.350Z,29.93
2019-06-26T19:12:41.731Z,29.85
2019-06-26T19:15:09.109Z,29.61
2019-06-26T19:17:35.319Z,29.50
2019-06-26T19:20:06.215Z,29.49
2019-06-26T19:22:32.421Z,29.55
2019-06-26T19:24:58.659Z,29.44
2019-06-26T19:27:24.923Z,29.48
2019-06-26T19:29:51.162Z,29.45
2019-06-26T19:32:17.408Z,29.39
2019-06-26T19:34:43.673Z,29.42
2019-06-26T19:37:09.931Z,29.14
2019-06-26T19:39:36.526Z,29.13
2019-06-26T19:42:02.747Z,29.02
2019-06-26T19:44:28.966Z,28.95
2019-06-26T19:46:55.174Z,28.86
2019-06-26T19:49:21.430Z,28.84
2019-06-26T19:51:47.904Z,28.70
2019-06-26T19:54:26.594Z,28.71
2019-06-26T19:56:42.226Z,28.51
2019-06-26T19:59:08.479Z,28.56
2019-06-26T20:01:34.719Z,28.59
2019-06-26T20:04:01.134Z,28.48
2019-06-26T20:06:27.438Z,28.27
2019-06-26T20:08:57.458Z,28.17
2019-06-26T20:11:21.926Z,28.10
2019-06-26T20:13:48.166Z,28.15
2019-06-26T20:16:14.691Z,28.12
2019-06-26T20:18:40.953Z,27.97
2019-06-26T20:21:07.283Z,28.10
2019-06-26T20:23:33.619Z,28.16
2019-06-26T20:25:59.919Z,28.08
2019-06-26T20:28:26.169Z,28.07
2019-06-26T20:30:52.925Z,27.70
2019-06-26T20:33:19.197Z,27.84
2019-06-26T20:35:45.408Z,27.89
2019-06-26T20:38:11.685Z,27.73
2019-06-26T20:40:37.946Z,27.64
2019-06-26T20:43:04.269Z,27.56
2019-06-26T20:45:30.504Z,27.52
2019-06-26T20:47:56.744Z,27.17
2019-06-26T20:50:22.989Z,27.05
2019-06-26T20:52:49.434Z,27.19
2019-06-26T20:55:16.114Z,27.26
2019-06-26T20:57:42.579Z,26.98
2019-06-26T21:00:09.146Z,26.67
2019-06-26T21:02:35.595Z,26.76
2019-06-26T21:05:05.810Z,26.97
2019-06-26T21:07:32.109Z,26.92
2019-06-26T21:09:58.437Z,26.61
2019-06-26T21:12:24.669Z,26.33
2019-06-26T21:14:50.828Z,26.31
2019-06-26T21:17:17.019Z,26.29
2019-06-26T21:19:43.255Z,26.22
2019-06-26T21:22:09.444Z,26.25
2019-06-26T21:24:35.943Z,26.40
2019-06-26T21:27:02.163Z,26.02
2019-06-26T21:29:28.344Z,25.89
2019-06-26T21:31:54.660Z,26.02
2019-06-26T21:34:20.844Z,25.78
2019-06-26T21:36:47.087Z,25.82
2019-06-26T21:39:13.312Z,25.91
2019-06-26T21:41:39.477Z,25.78
2019-06-26T21:44:05.688Z,25.71
2019-06-26T21:46:31.906Z,25.71
2019-06-26T21:48:58.143Z,25.69
2019-06-26T21:51:24.353Z,25.74
2019-06-26T21:53:50.569Z,25.78
2019-06-26T21:56:16.741Z,25.50
2019-06-26T21:58:43.376Z,25.63
2019-06-26T22:01:09.655Z,25.66
2019-06-26T22:03:35.938Z,25.45
2019-06-26T22:06:02.256Z,25.25
2019-06-26T22:08:29.208Z,25.38
2019-06-26T22:10:55.867Z,25.30
2019-06-26T22:13:23.090Z,25.24
2019-06-26T22:15:49.492Z,25.05
2019-06-26T22:18:20.011Z,24.99
2019-06-26T22:20:46.609Z,25.08
2019-06-26T22:23:13.105Z,24.86
2019-06-26T22:25:50.762Z,24.92
2019-06-26T22:28:13.374Z,24.73
2019-06-26T22:30:39.698Z,24.51
2019-06-26T22:33:06.116Z,24.50
2019-06-26T22:35:32.744Z,24.11
2019-06-26T22:37:59.241Z,24.02
2019-06-26T22:40:25.497Z,23.88
2019-06-26T22:42:51.685Z,23.96
2019-06-26T22:45:18.031Z,23.93
2019-06-26T22:47:44.328Z,23.97
2019-06-26T22:50:10.835Z,23.80
2019-06-26T22:52:37.122Z,23.78
2019-06-26T22:55:07.329Z,23.72
2019-06-26T22:57:33.622Z,23.90
2019-06-26T22:59:59.971Z,23.72
2019-06-26T23:02:26.389Z,23.79
2019-06-26T23:04:52.668Z,23.52
2019-06-26T23:07:18.907Z,23.65
2019-06-26T23:09:45.391Z,23.59
2019-06-26T23:12:11.723Z,23.60
2019-06-26T23:14:37.939Z,23.44
2019-06-26T23:17:04.196Z,23.47
2019-06-26T23:19:30.354Z,23.39
2019-06-26T23:21:56.571Z,23.47
2019-06-26T23:24:22.818Z,23.59
2019-06-26T23:26:49.135Z,23.46
2019-06-26T23:29:15.608Z,23.42
2019-06-26T23:31:41.800Z,23.37
2019-06-26T23:34:08.041Z,23.28
2019-06-26T23:36:34.472Z,23.18
2019-06-26T23:39:00.633Z,23.18
2019-06-26T23:41:26.876Z,23.02
2019-06-26T23:43:53.097Z,22.96
2019-06-26T23:46:19.316Z,22.98
2019-06-26T23:48:45.943Z,22.70
2019-06-26T23:51:12.338Z,22.74
2019-06-26T23:53:38.562Z,22.70
2019-06-26T23:56:05.244Z,22.64
2019-06-26T23:58:31.835Z,22.52
